createdAt,value
2018-11-13T00:00:05.162Z,93.40
2018-11-13T00:02:37.050Z,93.40
2018-11-13T00:05:19.465Z,92.80
2018-11-13T00:07:48.692Z,93.40
2018-11-13T00:10:19.368Z,92.10
2018-11-13T00:12:50.026Z,91.40
2018-11-13T00:15:19.946Z,91.40
2018-11-13T00:17:49.291Z,91.60
2018-11-13T00:20:19.575Z,92.10
2018-11-13T00:22:49.408Z,92.20
2018-11-13T00:25:19.767Z,92.60
2018-11-13T00:27:49.895Z,92.90
2018-11-13T00:30:23.298Z,93.40
2018-11-13T00:32:53.167Z,93.60
2018-11-13T00:35:24.021Z,93.50
2018-11-13T00:37:53.234Z,93.20
2018-11-13T00:40:22.903Z,93.00
2018-11-13T00:42:52.125Z,92.80
2018-11-13T00:45:21.842Z,92.70
2018-11-13T00:47:51.482Z,91.90
2018-11-13T00:50:21.207Z,91.30
2018-11-13T00:52:51.239Z,91.50
2018-11-13T00:55:22.685Z,91.20
2018-11-13T00:57:51.907Z,90.00
2018-11-13T01:00:21.645Z,88.90
2018-11-13T01:02:51.608Z,90.40
2018-11-13T01:05:21.975Z,93.30
2018-11-13T01:07:52.004Z,94.90
2018-11-13T01:10:21.751Z,94.70
2018-11-13T01:12:52.083Z,94.70
2018-11-13T01:15:21.618Z,94.00
2018-11-13T01:17:51.127Z,93.70
2018-11-13T01:20:21.155Z,93.20
2018-11-13T01:22:50.485Z,93.30
2018-11-13T01:25:20.994Z,93.10
2018-11-13T01:27:50.741Z,94.10
2018-11-13T01:30:20.132Z,95.40
2018-11-13T01:32:50.006Z,97.10
2018-11-13T01:35:22.416Z,97.00
2018-11-13T01:37:53.891Z,97.20
2018-11-13T01:40:23.796Z,97.20
2018-11-13T01:42:53.928Z,96.70
2018-11-13T01:45:23.289Z,96.60
2018-11-13T01:47:52.554Z,96.90
2018-11-13T01:50:22.063Z,97.00
2018-11-13T01:52:51.522Z,96.60
2018-11-13T01:55:21.016Z,96.10
2018-11-13T01:57:51.069Z,96.70
2018-11-13T02:00:23.707Z,96.50
2018-11-13T02:02:54.053Z,96.20
2018-11-13T02:05:25.095Z,96.70
2018-11-13T02:07:55.667Z,96.90
2018-11-13T02:10:25.198Z,96.20
2018-11-13T02:12:55.593Z,96.80
2018-11-13T02:15:24.925Z,97.20
2018-11-13T02:17:54.790Z,97.20
2018-11-13T02:20:25.951Z,96.60
2018-11-13T02:22:55.160Z,96.70
2018-11-13T02:25:24.944Z,96.80
2018-11-13T02:27:54.148Z,96.80
2018-11-13T02:30:24.235Z,97.50
2018-11-13T02:32:53.808Z,96.50
2018-11-13T02:35:24.861Z,95.40
2018-11-13T02:37:54.025Z,96.40
2018-11-13T02:40:25.079Z,98.10
2018-11-13T02:42:55.613Z,98.70
2018-11-13T02:45:30.372Z,99.50
2018-11-13T02:48:00.150Z,99.50
2018-11-13T02:50:29.342Z,99.60
2018-11-13T02:52:59.164Z,99.10
2018-11-13T02:55:31.234Z,99.30
2018-11-13T02:58:00.939Z,99.10
2018-11-13T03:00:31.500Z,98.70
2018-11-13T03:03:01.689Z,98.90
2018-11-13T03:05:31.285Z,98.60
2018-11-13T03:08:00.637Z,97.60
2018-11-13T03:10:30.716Z,96.10
2018-11-13T03:12:59.935Z,95.60
2018-11-13T03:15:29.289Z,95.10
2018-11-13T03:18:00.199Z,95.20
2018-11-13T03:20:29.441Z,96.20
2018-11-13T03:22:59.462Z,97.70
2018-11-13T03:25:32.295Z,97.40
2018-11-13T03:28:02.961Z,98.50
2018-11-13T03:30:33.002Z,98.50
2018-11-13T03:33:02.191Z,98.40
2018-11-13T03:35:33.519Z,97.70
2018-11-13T03:38:03.623Z,97.60
2018-11-13T03:40:32.899Z,97.10
2018-11-13T03:43:02.547Z,96.60
2018-11-13T03:45:33.906Z,96.30
2018-11-13T03:48:03.105Z,96.60
2018-11-13T03:50:33.622Z,95.40
2018-11-13T03:53:05.268Z,95.70
2018-11-13T03:55:34.633Z,95.40
2018-11-13T03:58:03.879Z,94.40
2018-11-13T04:00:33.232Z,95.00
2018-11-13T04:03:02.566Z,95.30
2018-11-13T04:05:38.636Z,94.00
2018-11-13T04:08:12.186Z,94.20
2018-11-13T04:10:43.362Z,94.20
2018-11-13T04:13:30.701Z,95.80
2018-11-13T04:16:02.723Z,95.90
2018-11-13T04:18:32.257Z,95.90
2018-11-13T04:21:01.650Z,95.20
2018-11-13T04:23:32.334Z,95.00
2018-11-13T04:26:01.787Z,95.10
2018-11-13T04:28:31.739Z,94.60
2018-11-13T04:31:02.873Z,94.20
2018-11-13T04:33:34.453Z,93.90
2018-11-13T04:36:03.870Z,94.30
2018-11-13T04:38:33.817Z,94.10
2018-11-13T04:41:03.997Z,94.20
2018-11-13T04:43:33.207Z,94.20
2018-11-13T04:46:02.402Z,93.80
2018-11-13T04:48:31.651Z,93.20
2018-11-13T04:51:01.758Z,92.90
2018-11-13T04:53:32.342Z,92.20
2018-11-13T04:56:02.065Z,92.10
2018-11-13T04:58:35.294Z,93.60
2018-11-13T05:01:06.079Z,93.30
2018-11-13T05:03:35.955Z,93.80
2018-11-13T05:06:07.058Z,94.90
2018-11-13T05:08:42.890Z,96.10
2018-11-13T05:11:14.413Z,94.80
2018-11-13T05:13:44.549Z,94.20
2018-11-13T05:16:14.768Z,94.80
2018-11-13T05:18:44.549Z,95.70
2018-11-13T05:21:15.727Z,95.50
2018-11-13T05:23:44.950Z,96.20
2018-11-13T05:26:14.563Z,95.90
2018-11-13T05:28:44.734Z,96.50
2018-11-13T05:31:14.407Z,96.00
2018-11-13T05:33:43.637Z,95.30
2018-11-13T05:36:14.310Z,95.90
2018-11-13T05:38:43.762Z,95.00
2018-11-13T05:41:13.042Z,95.00
2018-11-13T05:43:44.027Z,95.20
2018-11-13T05:46:13.337Z,94.20
2018-11-13T05:48:43.817Z,94.20
2018-11-13T05:51:14.017Z,94.10
2018-11-13T05:53:44.753Z,94.70
2018-11-13T05:56:14.220Z,95.10
2018-11-13T05:58:44.206Z,95.50
2018-11-13T06:01:15.241Z,94.60
2018-11-13T06:03:45.311Z,93.70
2018-11-13T06:06:14.528Z,93.30
2018-11-13T06:08:46.960Z,92.80
2018-11-13T06:11:16.455Z,93.30
2018-11-13T06:13:46.914Z,94.30
2018-11-13T06:16:16.190Z,94.90
2018-11-13T06:18:45.424Z,95.30
2018-11-13T06:21:14.625Z,95.40
2018-11-13T06:23:44.961Z,96.10
2018-11-13T06:26:18.000Z,96.10
2018-11-13T06:28:47.685Z,96.90
2018-11-13T06:31:17.040Z,97.40
2018-11-13T06:33:47.186Z,96.80
2018-11-13T06:36:16.395Z,95.50
2018-11-13T06:38:48.691Z,95.40
2018-11-13T06:41:18.252Z,95.70
2018-11-13T06:43:53.404Z,96.60
2018-11-13T06:46:23.952Z,94.20
2018-11-13T06:48:53.135Z,95.80
2018-11-13T06:51:26.406Z,96.60
2018-11-13T06:54:07.707Z,96.30
2018-11-13T06:56:37.617Z,96.20
2018-11-13T06:59:07.215Z,96.60
2018-11-13T07:01:39.930Z,95.60
2018-11-13T07:05:15.069Z,94.70
2018-11-13T07:07:46.638Z,96.10
2018-11-13T07:10:19.267Z,96.00
2018-11-13T07:12:53.194Z,96.00
2018-11-13T07:15:25.220Z,95.70
2018-11-13T07:17:57.034Z,95.40
2018-11-13T07:20:28.649Z,95.40
2018-11-13T07:22:58.168Z,94.70
2018-11-13T07:25:28.144Z,94.00
2018-11-13T07:27:58.358Z,93.50
2018-11-13T07:30:30.064Z,94.70
2018-11-13T07:32:59.437Z,94.60
2018-11-13T07:35:28.775Z,94.00
2018-11-13T07:38:04.250Z,93.50
2018-11-13T07:40:33.529Z,93.40
2018-11-13T07:43:02.848Z,93.10
2018-11-13T07:45:33.785Z,94.40
2018-11-13T07:48:03.959Z,94.60
2018-11-13T07:50:33.053Z,94.50
2018-11-13T07:53:02.290Z,94.00
2018-11-13T07:55:42.404Z,93.90
2018-11-13T07:58:14.048Z,94.40
2018-11-13T08:00:43.341Z,94.70
2018-11-13T08:03:38.996Z,95.90
2018-11-13T08:06:09.165Z,95.80
2018-11-13T08:08:38.406Z,95.80
2018-11-13T08:11:07.678Z,95.20
2018-11-13T08:13:36.956Z,93.60
2018-11-13T08:16:07.359Z,94.30
2018-11-13T08:18:36.584Z,94.80
2018-11-13T08:21:05.815Z,96.10
2018-11-13T08:23:35.527Z,95.20
2018-11-13T08:26:04.826Z,95.60
2018-11-13T08:28:35.034Z,94.10
2018-11-13T08:31:05.873Z,93.20
2018-11-13T08:33:35.671Z,92.00
2018-11-13T08:36:04.933Z,91.90
2018-11-13T08:38:35.249Z,93.30
2018-11-13T08:41:05.803Z,90.40
2018-11-13T08:43:35.101Z,91.50
2018-11-13T08:46:05.376Z,91.90
2018-11-13T08:48:35.884Z,89.70
2018-11-13T08:51:05.528Z,91.30
2018-11-13T08:53:35.478Z,88.10
2018-11-13T08:56:07.366Z,90.10
2018-11-13T08:58:36.704Z,89.70
2018-11-13T09:01:06.080Z,88.30
2018-11-13T09:03:35.380Z,91.80
2018-11-13T09:06:05.047Z,92.30
2018-11-13T09:08:35.218Z,93.50
2018-11-13T09:11:04.493Z,91.80
2018-11-13T09:13:34.004Z,91.90
2018-11-13T09:16:03.312Z,91.60
2018-11-13T09:18:32.747Z,89.80
2018-11-13T09:21:01.999Z,90.50
2018-11-13T09:23:31.232Z,90.30
2018-11-13T09:26:00.803Z,91.30
2018-11-13T09:28:30.222Z,90.00
2018-11-13T09:31:05.720Z,90.50
2018-11-13T09:33:35.349Z,87.00
2018-11-13T09:36:04.701Z,83.70
2018-11-13T09:38:34.380Z,85.00
2018-11-13T09:41:03.622Z,90.40
2018-11-13T09:43:32.856Z,80.30
2018-11-13T09:46:02.186Z,85.30
2018-11-13T09:48:32.016Z,86.20
2018-11-13T09:51:02.445Z,85.10
2018-11-13T09:53:31.797Z,88.60
2018-11-13T09:56:01.057Z,85.90
2018-11-13T09:58:30.600Z,86.70
2018-11-13T10:01:00.269Z,87.00
2018-11-13T10:03:30.035Z,88.30
2018-11-13T10:05:59.068Z,91.40
2018-11-13T10:08:29.095Z,88.20
2018-11-13T10:10:58.717Z,90.40
2018-11-13T10:13:29.215Z,80.70
2018-11-13T10:15:58.489Z,81.60
2018-11-13T10:18:27.925Z,84.80
2018-11-13T10:20:57.137Z,82.50
2018-11-13T10:23:26.716Z,80.20
2018-11-13T10:25:57.240Z,78.50
2018-11-13T10:28:26.542Z,84.90
2018-11-13T10:30:55.898Z,83.90
2018-11-13T10:33:25.296Z,83.10
2018-11-13T10:35:55.052Z,79.60
2018-11-13T10:38:24.423Z,78.50
2018-11-13T10:40:54.770Z,80.20
2018-11-13T10:43:24.966Z,81.30
2018-11-13T10:46:03.343Z,76.60
2018-11-13T10:48:32.846Z,81.80
2018-11-13T10:51:02.115Z,80.30
2018-11-13T10:53:31.893Z,81.20
2018-11-13T10:56:01.252Z,75.80
2018-11-13T10:58:31.422Z,79.40
2018-11-13T11:01:06.016Z,79.60
2018-11-13T11:03:45.789Z,81.70
2018-11-13T11:06:15.900Z,73.80
2018-11-13T11:08:46.206Z,73.00
2018-11-13T11:11:16.018Z,75.70
2018-11-13T11:13:45.623Z,69.20
2018-11-13T11:16:15.922Z,70.80
2018-11-13T11:18:45.938Z,69.60
2018-11-13T11:21:15.136Z,67.30
2018-11-13T11:23:44.793Z,67.80
2018-11-13T11:26:15.665Z,67.90
2018-11-13T11:28:45.189Z,64.30
2018-11-13T11:31:14.763Z,67.10
2018-11-13T11:33:44.057Z,62.40
2018-11-13T11:36:13.299Z,61.30
2018-11-13T11:38:42.637Z,60.00
2018-11-13T11:41:11.783Z,66.60
2018-11-13T11:43:41.545Z,70.40
2018-11-13T11:46:11.453Z,69.90
2018-11-13T11:48:41.465Z,67.30
2018-11-13T11:51:10.711Z,64.40
2018-11-13T11:53:41.903Z,63.80
2018-11-13T11:56:11.377Z,66.10
2018-11-13T11:58:42.453Z,68.20
2018-11-13T12:01:13.016Z,66.90
2018-11-13T12:03:42.230Z,63.30
2018-11-13T12:06:11.716Z,66.40
2018-11-13T12:08:41.699Z,62.90
2018-11-13T12:11:10.890Z,65.70
2018-11-13T12:13:40.620Z,63.60
2018-11-13T12:16:12.141Z,59.30
2018-11-13T12:18:41.476Z,61.40
2018-11-13T12:21:11.662Z,64.00
2018-11-13T12:23:42.389Z,64.60
2018-11-13T12:26:12.072Z,59.70
2018-11-13T12:28:41.963Z,65.10
2018-11-13T12:31:12.045Z,58.00
2018-11-13T12:33:41.356Z,54.70
2018-11-13T12:36:11.145Z,55.60
2018-11-13T12:38:41.330Z,58.10
2018-11-13T12:41:11.458Z,56.50
2018-11-13T12:43:42.760Z,57.00
2018-11-13T12:46:12.575Z,52.90
2018-11-13T12:48:43.170Z,53.60
2018-11-13T12:51:18.878Z,56.20
2018-11-13T12:53:49.577Z,62.00
2018-11-13T12:56:19.849Z,57.80
2018-11-13T12:58:49.486Z,52.60
2018-11-13T13:01:21.083Z,54.80
2018-11-13T13:03:50.303Z,51.00
2018-11-13T13:06:20.681Z,49.70
2018-11-13T13:08:51.414Z,48.90
2018-11-13T13:11:21.385Z,49.30
2018-11-13T13:13:55.055Z,52.10
2018-11-13T13:16:24.905Z,54.00
2018-11-13T13:18:54.266Z,55.20
2018-11-13T13:21:24.152Z,49.50
2018-11-13T13:23:56.290Z,47.70
2018-11-13T13:26:25.714Z,49.90
2018-11-13T13:28:55.364Z,52.90
2018-11-13T13:31:24.649Z,55.00
2018-11-13T13:33:55.207Z,54.50
2018-11-13T13:36:27.388Z,52.40
2018-11-13T13:38:56.581Z,55.30
2018-11-13T13:41:27.270Z,55.90
2018-11-13T13:44:00.276Z,53.60
2018-11-13T13:46:30.422Z,53.00
2018-11-13T13:49:01.552Z,55.00
2018-11-13T13:51:31.037Z,52.20
2018-11-13T13:54:01.055Z,50.20
2018-11-13T13:56:30.467Z,51.20
2018-11-13T13:59:01.277Z,49.80
2018-11-13T14:01:30.520Z,51.10
2018-11-13T14:04:03.034Z,53.40
2018-11-13T14:06:32.649Z,50.40
2018-11-13T14:09:01.958Z,49.20
2018-11-13T14:11:31.578Z,48.20
2018-11-13T14:14:01.586Z,48.40
2018-11-13T14:16:31.492Z,51.00
2018-11-13T14:19:02.324Z,48.80
2018-11-13T14:21:32.372Z,48.60
2018-11-13T14:24:04.123Z,47.40
2018-11-13T14:26:34.011Z,49.20
2018-11-13T14:29:05.788Z,53.30
2018-11-13T14:31:37.334Z,48.90
2018-11-13T14:34:07.737Z,47.90
2018-11-13T14:36:37.014Z,52.90
2018-11-13T14:39:10.406Z,51.30
2018-11-13T14:41:40.500Z,53.50
2018-11-13T14:44:10.583Z,50.60
2018-11-13T14:46:39.910Z,52.50
2018-11-13T14:49:09.369Z,51.50
2018-11-13T14:51:38.606Z,52.50
2018-11-13T14:54:12.484Z,54.30
2018-11-13T14:56:42.743Z,57.50
2018-11-13T14:59:13.653Z,59.20
2018-11-13T15:01:43.231Z,55.30
2018-11-13T15:04:12.838Z,54.60
2018-11-13T15:06:43.322Z,55.30
2018-11-13T15:09:13.902Z,54.40
2018-11-13T15:11:43.197Z,56.80
2018-11-13T15:14:32.882Z,61.50
2018-11-13T15:17:02.092Z,63.20
2018-11-13T15:19:31.627Z,64.50
2018-11-13T15:22:01.510Z,60.70
2018-11-13T15:24:31.173Z,61.10
2018-11-13T15:27:00.707Z,61.90
2018-11-13T15:29:30.431Z,61.70
2018-11-13T15:37:20.595Z,67.60
2018-11-13T15:39:50.721Z,66.30
2018-11-13T15:42:20.226Z,68.90
2018-11-13T15:44:51.581Z,68.90
2018-11-13T15:47:23.694Z,67.50
2018-11-13T15:49:59.116Z,68.50
2018-11-13T15:52:28.497Z,71.10
2018-11-13T15:54:57.745Z,73.80
2018-11-13T15:57:28.347Z,75.20
2018-11-13T15:59:57.905Z,76.90
2018-11-13T16:02:30.726Z,79.80
2018-11-13T16:07:12.947Z,86.30
2018-11-13T16:09:42.426Z,87.40
2018-11-13T16:12:18.296Z,86.90
2018-11-13T16:14:48.959Z,85.10
2018-11-13T16:17:23.719Z,87.80
2018-11-13T16:19:53.298Z,88.00
2018-11-13T16:22:22.468Z,89.10
2018-11-13T16:24:51.834Z,91.10
2018-11-13T16:27:21.320Z,93.80
2018-11-13T16:29:50.620Z,95.00
2018-11-13T16:32:22.326Z,95.20
2018-11-13T16:34:52.724Z,96.90
2018-11-13T16:37:21.945Z,94.90
2018-11-13T16:39:51.184Z,94.40
2018-11-13T16:42:20.704Z,94.90
2018-11-13T16:44:52.015Z,96.60
2018-11-13T16:47:23.491Z,97.50
2018-11-13T16:49:55.134Z,95.20
2018-11-13T16:52:24.495Z,95.80
2018-11-13T16:54:53.847Z,96.10
2018-11-13T16:57:24.675Z,93.80
2018-11-13T16:59:55.523Z,92.80
2018-11-13T17:02:29.967Z,94.30
2018-11-13T17:05:00.274Z,95.50
2018-11-13T17:07:30.160Z,96.40
2018-11-13T17:10:00.306Z,96.70
2018-11-13T17:12:30.823Z,94.90
2018-11-13T17:15:00.387Z,95.60
2018-11-13T17:17:32.022Z,96.10
2018-11-13T17:20:01.680Z,96.80
2018-11-13T17:22:30.928Z,96.70
2018-11-13T17:25:01.897Z,96.70
2018-11-13T17:27:31.377Z,95.70
2018-11-13T17:30:00.419Z,94.60
2018-11-13T17:32:31.551Z,92.50
2018-11-13T17:35:04.844Z,92.60
2018-11-13T17:37:34.269Z,94.40
2018-11-13T17:40:03.850Z,92.40
2018-11-13T17:42:33.621Z,91.70
2018-11-13T17:45:21.320Z,93.60
2018-11-13T17:47:52.124Z,94.70
2018-11-13T17:50:28.754Z,94.60
2018-11-13T17:52:58.104Z,95.70
2018-11-13T17:55:29.629Z,95.80
2018-11-13T17:58:01.512Z,96.10
2018-11-13T18:00:35.206Z,96.10
2018-11-13T18:03:05.975Z,96.40
2018-11-13T18:05:35.670Z,96.50
2018-11-13T18:08:05.708Z,96.20
2018-11-13T18:10:35.999Z,96.40
2018-11-13T18:13:06.218Z,95.20
2018-11-13T18:15:37.642Z,92.90
2018-11-13T18:18:07.477Z,92.20
2018-11-13T18:20:39.761Z,92.50
2018-11-13T18:23:14.012Z,92.80
2018-11-13T18:25:44.713Z,94.30
2018-11-13T18:28:15.451Z,94.20
2018-11-13T18:30:49.757Z,95.30
2018-11-13T18:33:18.974Z,95.40
2018-11-13T18:35:49.715Z,96.10
2018-11-13T18:38:19.292Z,96.80
2018-11-13T18:40:48.894Z,96.20
2018-11-13T18:43:18.386Z,96.40
2018-11-13T18:45:48.821Z,96.60
2018-11-13T18:48:18.439Z,96.50
2018-11-13T18:50:47.969Z,96.80
2018-11-13T18:53:19.202Z,96.30
2018-11-13T18:55:52.145Z,96.40
2018-11-13T18:58:22.247Z,95.10
2018-11-13T19:00:53.611Z,93.30
2018-11-13T19:03:23.083Z,94.00
2018-11-13T19:05:52.638Z,93.70
2018-11-13T19:08:23.155Z,93.10
2018-11-13T19:10:52.729Z,94.40
2018-11-13T19:13:23.812Z,93.90
2018-11-13T19:15:56.123Z,94.10
2018-11-13T19:18:25.876Z,94.90
2018-11-13T19:20:55.316Z,95.40
2018-11-13T19:23:25.489Z,95.70
2018-11-13T19:25:57.495Z,95.60
2018-11-13T19:28:26.816Z,96.10
2018-11-13T19:30:56.319Z,95.80
2018-11-13T19:33:27.131Z,95.40
2018-11-13T19:35:56.737Z,95.90
2018-11-13T19:38:26.141Z,95.70
2018-11-13T19:40:56.682Z,95.70
2018-11-13T19:43:25.987Z,95.90
2018-11-13T19:45:57.090Z,95.70
2018-11-13T19:48:27.466Z,95.40
2018-11-13T19:50:57.874Z,95.00
2018-11-13T19:53:28.732Z,95.50
2018-11-13T19:55:58.850Z,96.00
2018-11-13T19:58:28.966Z,95.10
2018-11-13T20:01:00.353Z,94.90
2018-11-13T20:03:30.174Z,95.00
2018-11-13T20:06:00.029Z,95.50
2018-11-13T20:08:29.976Z,95.80
2018-11-13T20:10:59.310Z,94.00
2018-11-13T20:13:29.847Z,92.60
2018-11-13T20:15:59.468Z,91.10
2018-11-13T20:18:28.754Z,93.70
2018-11-13T20:21:01.254Z,95.00
2018-11-13T20:23:31.954Z,96.70
2018-11-13T20:26:04.284Z,96.50
2018-11-13T20:28:34.472Z,97.60
2018-11-13T20:31:04.306Z,97.40
2018-11-13T20:33:34.202Z,96.80
2018-11-13T20:36:06.557Z,95.70
2018-11-13T20:38:36.767Z,94.50
2018-11-13T20:41:06.082Z,93.90
2018-11-13T20:43:37.113Z,93.40
2018-11-13T20:46:08.488Z,93.60
2018-11-13T20:48:38.710Z,93.90
2018-11-13T20:51:07.986Z,93.60
2018-11-13T20:53:37.450Z,93.70
2018-11-13T20:56:06.790Z,94.20
2018-11-13T20:58:38.359Z,93.80
2018-11-13T21:01:08.587Z,94.10
2018-11-13T21:03:38.741Z,94.10
2018-11-13T21:06:07.995Z,94.70
2018-11-13T21:08:37.667Z,94.30
2018-11-13T21:11:07.931Z,93.50
2018-11-13T21:13:38.287Z,93.10
2018-11-13T21:16:07.848Z,92.80
2018-11-13T21:18:37.824Z,92.60
2018-11-13T21:21:08.202Z,93.50
2018-11-13T21:23:37.477Z,94.00
2018-11-13T21:26:07.138Z,93.50
2018-11-13T21:28:38.529Z,93.50
2018-11-13T21:31:07.781Z,93.60
2018-11-13T21:33:37.092Z,93.30
2018-11-13T21:36:07.308Z,92.90
2018-11-13T21:38:36.502Z,92.40
2018-11-13T21:41:05.857Z,90.70
2018-11-13T21:43:35.767Z,91.50
2018-11-13T21:46:05.110Z,92.10
2018-11-13T21:48:35.421Z,92.60
2018-11-13T21:51:06.961Z,91.60
2018-11-13T21:53:36.532Z,91.40
2018-11-13T21:56:06.120Z,91.90
2018-11-13T21:58:35.693Z,91.40
2018-11-13T22:01:05.412Z,91.60
2018-11-13T22:03:35.195Z,91.00
2018-11-13T22:06:05.361Z,91.10
2018-11-13T22:08:34.593Z,90.60
2018-11-13T22:11:04.061Z,91.60
2018-11-13T22:13:35.061Z,91.30
2018-11-13T22:16:04.263Z,91.40
2018-11-13T22:18:34.351Z,91.60
2018-11-13T22:21:03.635Z,91.70
2018-11-13T22:23:34.486Z,91.00
2018-11-13T22:26:03.710Z,92.10
2018-11-13T22:28:34.771Z,91.60
2018-11-13T22:31:04.768Z,91.70
2018-11-13T22:33:33.984Z,91.50
2018-11-13T22:36:05.139Z,92.00
2018-11-13T22:38:37.394Z,91.70
2018-11-13T22:41:07.166Z,92.40
2018-11-13T22:43:36.881Z,92.00
2018-11-13T22:46:07.312Z,92.10
2018-11-13T22:48:40.490Z,91.80
2018-11-13T22:51:10.530Z,92.40
2018-11-13T22:53:39.373Z,92.80
2018-11-13T22:56:08.700Z,92.50
2018-11-13T22:58:40.316Z,91.50
2018-11-13T23:01:10.556Z,91.00
2018-11-13T23:03:40.416Z,91.30
2018-11-13T23:06:10.774Z,91.20
2018-11-13T23:08:40.496Z,91.60
2018-11-13T23:11:13.129Z,90.70
2018-11-13T23:13:42.478Z,90.80
2018-11-13T23:16:11.960Z,90.90
2018-11-13T23:18:41.238Z,91.60
2018-11-13T23:21:10.485Z,92.70
2018-11-13T23:23:39.746Z,93.00
2018-11-13T23:26:09.287Z,93.20
2018-11-13T23:28:39.252Z,93.80
2018-11-13T23:31:08.482Z,94.30
2018-11-13T23:33:39.199Z,93.40
2018-11-13T23:36:10.204Z,93.30
2018-11-13T23:38:39.450Z,94.00
2018-11-13T23:41:08.727Z,93.40
2018-11-13T23:43:40.468Z,93.00
2018-11-13T23:46:10.113Z,92.40
2018-11-13T23:48:40.552Z,91.40
2018-11-13T23:51:10.857Z,92.10
2018-11-13T23:53:40.728Z,91.70
2018-11-13T23:56:09.927Z,92.40
2018-11-13T23:58:39.227Z,92.30
